| time (UTC) | temp F | wind direction | speed knots | gust knots | rain 1hr in | rain 24hr in | rain mn in | humidity % | barometer mb |
| 20260906121802 | 72 | 0 | 0.0 | 0.0 | 0.00 | 1.09 | 0.00 | 98 | 1014.2 |
| 20260906120002 | 71 | 0 | 0.0 | 0.0 | 0.00 | 1.09 | 0.00 | 98 | 1014.0 |
| 20260906115402 | 72 | 146 | 0.0 | 0.9 | 0.00 | 1.09 | 0.00 | 98 | 1014.0 |
| 20260906114502 | 72 | 146 | 0.0 | 0.9 | 0.00 | 1.09 | 0.00 | 98 | 1013.9 |
| 20260906113602 | 71 | 0 | 0.0 | 0.0 | 0.00 | 1.09 | 0.00 | 98 | 1014.0 |
| 20260906112702 | 71 | 0 | 0.0 | 0.0 | 0.00 | 1.09 | 0.00 | 98 | 1014.1 |
| 20260906111802 | 71 | 0 | 0.0 | 0.0 | 0.00 | 1.09 | 0.00 | 98 | 1014.0 |
| 20260906110902 | 71 | 0 | 0.0 | 0.0 | 0.00 | 1.09 | 0.00 | 98 | 1013.9 |
| 20260906110002 | 71 | 0 | 0.0 | 0.0 | 0.00 | 1.09 | 0.00 | 98 | 1014.0 |
| 20260906105423 | 71 | 0 | 0.0 | 0.0 | 0.00 | 1.09 | 0.00 | 98 | 1013.9 |
| 20260906104502 | 71 | 0 | 0.0 | 0.0 | 0.00 | 1.09 | 0.00 | 98 | 1014.0 |
| 20260906103602 | 71 | 0 | 0.0 | 0.0 | 0.00 | 1.09 | 0.00 | 98 | 1013.7 |
| 20260906102702 | 71 | 0 | 0.0 | 0.0 | 0.00 | 1.09 | 0.00 | 98 | 1013.7 |
| 20260906101802 | 71 | 0 | 0.0 | 0.0 | 0.00 | 1.09 | 0.00 | 98 | 1013.7 |
| 20260906100902 | 71 | 0 | 0.0 | 0.0 | 0.00 | 1.09 | 0.00 | 98 | 1013.6 |
| 20260906100002 | 71 | 0 | 0.0 | 0.0 | 0.00 | 1.09 | 0.00 | 98 | 1013.7 |
| 20260906095402 | 71 | 0 | 0.0 | 0.0 | 0.00 | 1.09 | 0.00 | 98 | 1013.7 |
| 20260906094523 | 71 | 0 | 0.0 | 0.0 | 0.00 | 1.09 | 0.00 | 98 | 1013.7 |
| 20260906093602 | 71 | 0 | 0.0 | 0.0 | 0.00 | 1.09 | 0.00 | 98 | 1013.6 |
| 20260906092702 | 71 | 0 | 0.0 | 0.0 | 0.00 | 1.09 | 0.00 | 98 | 1013.5 |
| 20260906091802 | 71 | 0 | 0.0 | 0.0 | 0.00 | 1.09 | 0.00 | 98 | 1013.9 |
| 20260906090902 | 71 | 0 | 0.0 | 0.0 | 0.00 | 1.09 | 0.00 | 98 | 1013.7 |
| 20260906090002 | 71 | 0 | 0.0 | 0.0 | 0.00 | 1.09 | 0.00 | 98 | 1013.9 |
| 20260906085402 | 71 | 0 | 0.0 | 0.0 | 0.00 | 1.09 | 0.00 | 98 | 1013.6 |
| 20260906084523 | 71 | 0 | 0.0 | 0.0 | 0.00 | 1.09 | 0.00 | 97 | 1013.7 |
| 20260906083602 | 71 | 0 | 0.0 | 0.0 | 0.00 | 1.09 | 0.00 | 97 | 1013.5 |
| 20260906082702 | 71 | 0 | 0.0 | 0.0 | 0.00 | 1.09 | 0.00 | 97 | 1013.5 |
| 20260906081802 | 71 | 0 | 0.0 | 0.0 | 0.00 | 1.09 | 0.00 | 97 | 1013.6 |
| 20260906080902 | 71 | 0 | 0.0 | 0.0 | 0.00 | 1.09 | 0.00 | 97 | 1013.7 |
| 20260906080002 | 71 | 0 | 0.0 | 0.0 | 0.00 | 1.09 | 0.00 | 97 | 1013.5 |
| 20260906075402 | 71 | 0 | 0.0 | 0.0 | 0.00 | 1.09 | 0.00 | 97 | 1013.5 |
| 20260906074502 | 71 | 0 | 0.0 | 0.0 | 0.00 | 1.09 | 0.00 | 97 | 1013.4 |
| 20260906073602 | 71 | 0 | 0.0 | 0.0 | 0.00 | 1.09 | 0.00 | 97 | 1013.4 |
| 20260906072702 | 71 | 0 | 0.0 | 0.0 | 0.00 | 1.09 | 0.00 | 97 | 1013.5 |
| 20260906071802 | 71 | 0 | 0.0 | 0.0 | 0.00 | 1.09 | 0.00 | 97 | 1013.7 |
| 20260906070902 | 71 | 0 | 0.0 | 0.0 | 0.00 | 1.09 | 0.00 | 97 | 1013.7 |
| 20260906070002 | 71 | 0 | 0.0 | 0.0 | 0.00 | 1.09 | 0.00 | 97 | 1013.6 |
| 20260906065402 | 71 | 0 | 0.0 | 0.0 | 0.00 | 1.09 | 0.00 | 97 | 1013.6 |
| 20260906064502 | 71 | 0 | 0.0 | 0.0 | 0.00 | 1.09 | 0.00 | 97 | 1013.4 |
| 20260906063602 | 71 | 0 | 0.0 | 0.0 | 0.00 | 1.09 | 0.00 | 97 | 1013.7 |
| 20260906062702 | 71 | 0 | 0.0 | 0.0 | 0.00 | 1.09 | 0.00 | 97 | 1013.7 |
| 20260906061802 | 72 | 0 | 0.0 | 0.0 | 0.00 | 1.09 | 0.00 | 97 | 1014.2 |
| 20260906060902 | 72 | 0 | 0.0 | 0.0 | 0.00 | 1.09 | 0.00 | 97 | 1014.1 |
| 20260906060002 | 72 | 0 | 0.0 | 0.0 | 0.00 | 1.09 | 0.00 | 97 | 1014.2 |
| 20260906055423 | 72 | 0 | 0.0 | 0.0 | 0.00 | 1.09 | 0.00 | 97 | 1014.4 |
| 20260906054502 | 72 | 0 | 0.0 | 0.0 | 0.00 | 1.09 | 0.00 | 97 | 1014.3 |
| 20260906053602 | 72 | 0 | 0.0 | 0.0 | 0.00 | 1.09 | 0.00 | 97 | 1014.5 |
| 20260906052702 | 72 | 0 | 0.0 | 0.0 | 0.00 | 1.09 | 0.00 | 97 | 1014.4 |
| 20260906051802 | 72 | 0 | 0.0 | 0.0 | 0.00 | 1.09 | 0.00 | 97 | 1014.5 |
| 20260906050902 | 72 | 0 | 0.0 | 0.0 | 0.00 | 1.09 | 0.00 | 97 | 1014.6 |
| 20260906050002 | 72 | 0 | 0.0 | 0.0 | 0.00 | 1.09 | 0.00 | 97 | 1014.6 |
| 20260906045402 | 72 | 0 | 0.0 | 0.0 | 0.00 | 1.09 | 0.00 | 97 | 1014.6 |
| 20260906044502 | 72 | 0 | 0.0 | 0.0 | 0.00 | 1.09 | 0.00 | 97 | 1014.5 |
| 20260906043602 | 72 | 0 | 0.0 | 0.0 | 0.00 | 1.09 | 0.00 | 97 | 1014.4 |
| 20260906042702 | 72 | 0 | 0.0 | 0.0 | 0.00 | 1.09 | 0.00 | 96 | 1014.5 |
| 20260906041802 | 72 | 0 | 0.0 | 0.0 | 0.00 | 1.09 | 0.00 | 96 | 1014.5 |
| 20260906040902 | 72 | 0 | 0.0 | 0.0 | 0.00 | 1.09 | 0.00 | 96 | 1014.4 |
| 20260906040002 | 72 | 0 | 0.0 | 0.0 | 0.00 | 1.09 | 0.00 | 96 | 1014.7 |
| 20260906035402 | 72 | 0 | 0.0 | 0.0 | 0.00 | 1.09 | 1.09 | 96 | 1014.8 |
| 20260906034502 | 72 | 0 | 0.0 | 0.0 | 0.00 | 1.09 | 1.09 | 96 | 1014.8 |
| 20260906033602 | 72 | 0 | 0.0 | 0.0 | 0.00 | 1.09 | 1.09 | 96 | 1014.5 |
| 20260906032702 | 72 | 0 | 0.0 | 0.0 | 0.00 | 1.09 | 1.09 | 96 | 1014.8 |
| 20260906031802 | 72 | 0 | 0.0 | 0.0 | 0.00 | 1.09 | 1.09 | 96 | 1015.1 |
| 20260906030902 | 73 | 0 | 0.0 | 0.0 | 0.00 | 1.09 | 1.09 | 95 | 1015.1 |
| 20260906030023 | 73 | 0 | 0.0 | 0.0 | 0.00 | 1.09 | 1.09 | 95 | 1015.1 |
| 20260906025402 | 73 | 0 | 0.0 | 0.0 | 0.00 | 1.09 | 1.09 | 95 | 1015.1 |
| 20260906024502 | 72 | 0 | 0.0 | 0.0 | 0.00 | 1.09 | 1.09 | 95 | 1015.2 |
| 20260906023602 | 72 | 0 | 0.0 | 0.0 | 0.00 | 1.09 | 1.09 | 95 | 1015.1 |
| 20260906022702 | 73 | 0 | 0.0 | 0.0 | 0.00 | 1.09 | 1.09 | 94 | 1015.0 |
| 20260906021802 | 73 | 0 | 0.0 | 0.0 | 0.00 | 1.09 | 1.09 | 94 | 1014.9 |
| 20260906020902 | 73 | 0 | 0.0 | 0.0 | 0.00 | 1.09 | 1.09 | 94 | 1015.1 |
| 20260906020002 | 73 | 0 | 0.0 | 0.0 | 0.00 | 1.09 | 1.09 | 94 | 1014.8 |
| 20260906015402 | 73 | 0 | 0.0 | 0.0 | 0.00 | 1.09 | 1.09 | 94 | 1015.0 |
| 20260906014523 | 74 | 134 | 0.0 | 0.9 | 0.00 | 1.09 | 1.09 | 92 | 1014.9 |
| 20260906013623 | 74 | 187 | 0.0 | 0.9 | 0.00 | 1.09 | 1.09 | 89 | 1014.9 |
| 20260906012702 | 74 | 275 | 0.0 | 1.7 | 0.00 | 1.09 | 1.09 | 91 | 1015.2 |
| 20260906011802 | 74 | 257 | 0.9 | 5.2 | 0.00 | 1.09 | 1.09 | 90 | 1015.1 |
| 20260906010902 | 74 | 96 | 0.9 | 5.2 | 0.00 | 1.09 | 1.09 | 94 | 1014.7 |
| 20260906010023 | 74 | 0 | 0.0 | 0.0 | 0.00 | 1.09 | 1.09 | 96 | 1013.6 |
| 20260906005402 | 74 | 0 | 0.0 | 0.0 | 0.00 | 1.09 | 1.09 | 96 | 1013.6 |
| 20260906004502 | 74 | 0 | 0.0 | 0.0 | 0.00 | 1.09 | 1.09 | 96 | 1013.5 |
| 20260906003602 | 74 | 0 | 0.0 | 0.0 | 0.00 | 1.09 | 1.09 | 95 | 1013.7 |
| 20260906002702 | 74 | 0 | 0.0 | 0.0 | 0.00 | 1.09 | 1.09 | 95 | 1013.3 |
| 20260906001823 | 74 | 0 | 0.0 | 0.0 | 0.00 | 1.09 | 1.09 | 95 | 1013.1 |
| 20260906000902 | 74 | 0 | 0.0 | 0.0 | 0.00 | 1.09 | 1.09 | 95 | 1013.1 |
| 20260906000002 | 74 | 0 | 0.0 | 0.0 | 0.00 | 1.09 | 1.09 | 95 | 1012.8 |
| 20260905235402 | 74 | 0 | 0.0 | 0.0 | 0.00 | 1.09 | 1.09 | 95 | 1012.4 |
| 20260905234502 | 74 | 0 | 0.0 | 0.0 | 0.00 | 1.09 | 1.09 | 94 | 1012.8 |
| 20260905233602 | 74 | 0 | 0.0 | 0.0 | 0.00 | 1.09 | 1.09 | 94 | 1012.5 |
| 20260905232723 | 74 | 0 | 0.0 | 0.0 | 0.00 | 1.09 | 1.09 | 93 | 1012.7 |
| 20260905231802 | 74 | 258 | 0.0 | 0.9 | 0.01 | 1.09 | 1.09 | 92 | 1012.7 |
| 20260905230902 | 75 | 190 | 0.0 | 0.9 | 0.01 | 1.09 | 1.09 | 90 | 1013.2 |
| 20260905230002 | 75 | 140 | 0.0 | 2.6 | 0.24 | 1.09 | 1.09 | 90 | 1013.0 |
| 20260905225402 | 75 | 159 | 0.0 | 2.6 | 0.53 | 1.09 | 1.09 | 88 | 1013.4 |
| 20260905224502 | 75 | 190 | 1.7 | 3.5 | 1.05 | 1.09 | 1.09 | 89 | 1013.6 |
| 20260905223602 | 75 | 352 | 0.9 | 5.2 | 1.09 | 1.09 | 1.09 | 90 | 1014.1 |
| 20260905222702 | 75 | 121 | 0.0 | 1.7 | 1.09 | 1.09 | 1.09 | 95 | 1014.4 |
| 20260905221802 | 74 | 334 | 0.0 | 2.6 | 1.08 | 1.08 | 1.08 | 93 | 1013.9 |
| 20260905220902 | 74 | 244 | 2.6 | 7.8 | 1.08 | 1.08 | 1.08 | 89 | 1013.5 |
| 20260905220002 | 77 | 237 | 1.7 | 8.7 | 0.85 | 0.85 | 0.85 | 89 | 1014.4 |
| 20260905215402 | 78 | 218 | 0.9 | 8.7 | 0.56 | 0.56 | 0.56 | 89 | 1013.7 |
| 20260905214502 | 90 | 44 | 1.7 | 2.6 | 0.04 | 0.04 | 0.04 | 66 | 1012.8 |
| 20260905213602 | 97 | 85 | 0.9 | 0.9 | 0.00 | 0.00 | 0.00 | 48 | 1012.2 |
| 20260905212723 | 96 | 70 | 0.9 | 1.7 | 0.00 | 0.00 | 0.00 | 43 | 1011.9 |
| 20260905211823 | 97 | 208 | 0.9 | 2.6 | 0.00 | 0.00 | 0.00 | 43 | 1012.0 |
| 20260905210902 | 96 | 192 | 0.9 | 1.7 | 0.00 | 0.00 | 0.00 | 43 | 1012.1 |
| 20260905210002 | 96 | 179 | 0.0 | 0.9 | 0.00 | 0.00 | 0.00 | 45 | 1012.4 |
| 20260905205402 | 95 | 87 | 0.0 | 0.9 | 0.00 | 0.00 | 0.00 | 46 | 1012.3 |
| 20260905204502 | 97 | 88 | 0.0 | 0.9 | 0.00 | 0.00 | 0.00 | 43 | 1012.7 |
| 20260905203602 | 96 | 211 | 0.0 | 0.9 | 0.00 | 0.00 | 0.00 | 41 | 1012.5 |
| 20260905202702 | 94 | 181 | 0.9 | 1.7 | 0.00 | 0.00 | 0.00 | 46 | 1012.6 |
| 20260905201802 | 94 | 0 | 0.0 | 0.9 | 0.00 | 0.00 | 0.00 | 46 | 1012.7 |
| 20260905200902 | 97 | 162 | 0.0 | 0.9 | 0.00 | 0.00 | 0.00 | 45 | 1013.0 |
| 20260905200002 | 98 | 214 | 0.0 | 0.9 | 0.00 | 0.00 | 0.00 | 42 | 1012.9 |
| 20260905195402 | 98 | 276 | 0.9 | 2.6 | 0.00 | 0.00 | 0.00 | 40 | 1013.2 |
| 20260905194502 | 97 | 233 | 0.0 | 1.7 | 0.00 | 0.00 | 0.00 | 42 | 1012.8 |
| 20260905193602 | 97 | 152 | 0.9 | 1.7 | 0.00 | 0.00 | 0.00 | 42 | 1013.0 |
| 20260905192702 | 96 | 29 | 0.9 | 1.7 | 0.00 | 0.00 | 0.00 | 43 | 1013.2 |
| 20260905191802 | 97 | 216 | 1.7 | 5.2 | 0.00 | 0.00 | 0.00 | 42 | 1013.4 |
| 20260905190902 | 97 | 189 | 1.7 | 5.2 | 0.00 | 0.00 | 0.00 | 40 | 1013.5 |
| 20260905190002 | 96 | 117 | 0.9 | 2.6 | 0.00 | 0.00 | 0.00 | 43 | 1013.7 |
| 20260905185402 | 96 | 230 | 1.7 | 3.5 | 0.00 | 0.00 | 0.00 | 45 | 1013.7 |
| 20260905184523 | 94 | 207 | 0.9 | 0.9 | 0.00 | 0.00 | 0.00 | 49 | 1014.0 |
| 20260905183602 | 93 | 172 | 0.9 | 0.9 | 0.00 | 0.00 | 0.00 | 49 | 1014.0 |
| 20260905182702 | 93 | 225 | 0.0 | 0.9 | 0.00 | 0.00 | 0.00 | 49 | 1014.2 |
| 20260905181802 | 96 | 206 | 0.9 | 0.9 | 0.00 | 0.00 | 0.00 | 48 | 1014.2 |
| 20260905180902 | 95 | 109 | 0.9 | 1.7 | 0.00 | 0.00 | 0.00 | 47 | 1014.3 |
| 20260905180023 | 94 | 315 | 0.9 | 2.6 | 0.00 | 0.00 | 0.00 | 44 | 1014.4 |
| 20260905175402 | 94 | 283 | 0.9 | 2.6 | 0.00 | 0.00 | 0.00 | 47 | 1014.4 |
| 20260905174502 | 93 | 56 | 0.9 | 0.9 | 0.00 | 0.00 | 0.00 | 50 | 1014.8 |
| 20260905173602 | 95 | 183 | 0.9 | 1.7 | 0.00 | 0.00 | 0.00 | 46 | 1014.8 |
| 20260905172702 | 94 | 119 | 0.9 | 2.6 | 0.00 | 0.00 | 0.00 | 47 | 1014.9 |
| 20260905171802 | 94 | 343 | 0.9 | 2.6 | 0.00 | 0.00 | 0.00 | 48 | 1014.9 |
| 20260905170923 | 92 | 179 | 0.9 | 2.6 | 0.00 | 0.00 | 0.00 | 50 | 1015.1 |
| 20260905170002 | 92 | 326 | 0.9 | 0.9 | 0.00 | 0.00 | 0.00 | 50 | 1015.0 |
| 20260905165402 | 91 | 336 | 0.9 | 1.7 | 0.00 | 0.00 | 0.00 | 50 | 1015.1 |
| 20260905164502 | 91 | 326 | 0.9 | 2.6 | 0.00 | 0.00 | 0.00 | 51 | 1015.3 |
| 20260905163602 | 91 | 349 | 1.7 | 1.7 | 0.00 | 0.00 | 0.00 | 50 | 1015.5 |
| 20260905162702 | 90 | 341 | 1.7 | 3.5 | 0.00 | 0.00 | 0.00 | 50 | 1015.4 |
| 20260905161802 | 90 | 41 | 0.0 | 0.9 | 0.00 | 0.00 | 0.00 | 52 | 1015.7 |
| 20260905160902 | 89 | 339 | 1.7 | 3.5 | 0.00 | 0.00 | 0.00 | 55 | 1015.9 |
| 20260905160002 | 89 | 326 | 1.7 | 3.5 | 0.00 | 0.00 | 0.00 | 53 | 1015.8 |
| 20260905155423 | 90 | 215 | 2.6 | 2.6 | 0.00 | 0.00 | 0.00 | 53 | 1015.9 |
| 20260905154502 | 87 | 352 | 0.9 | 1.7 | 0.00 | 0.00 | 0.00 | 57 | 1016.1 |
| 20260905153602 | 87 | 345 | 0.9 | 1.7 | 0.00 | 0.00 | 0.00 | 58 | 1016.0 |
| 20260905152702 | 89 | 265 | 0.9 | 0.9 | 0.00 | 0.00 | 0.00 | 59 | 1016.0 |
| 20260905151802 | 88 | 289 | 0.9 | 1.7 | 0.00 | 0.00 | 0.00 | 61 | 1016.2 |
| 20260905150902 | 87 | 2 | 0.0 | 0.9 | 0.00 | 0.00 | 0.00 | 59 | 1016.1 |
| 20260905150002 | 86 | 1 | 0.9 | 0.9 | 0.00 | 0.00 | 0.00 | 61 | 1016.2 |
| 20260905145402 | 86 | 10 | 0.0 | 0.9 | 0.00 | 0.00 | 0.00 | 62 | 1016.1 |
| 20260905144502 | 86 | 58 | 0.0 | 0.9 | 0.00 | 0.00 | 0.00 | 64 | 1016.3 |
| 20260905143602 | 85 | 330 | 0.0 | 0.9 | 0.00 | 0.00 | 0.00 | 65 | 1016.3 |
| 20260905142723 | 84 | 331 | 0.9 | 1.7 | 0.00 | 0.00 | 0.00 | 67 | 1016.2 |
| 20260905141802 | 83 | 0 | 0.0 | 0.0 | 0.00 | 0.00 | 0.00 | 70 | 1016.5 |
| 20260905140902 | 82 | 246 | 0.0 | 0.9 | 0.00 | 0.00 | 0.00 | 71 | 1016.5 |
| 20260905140002 | 82 | 246 | 0.0 | 0.9 | 0.00 | 0.00 | 0.00 | 72 | 1016.5 |
| 20260905135402 | 80 | 0 | 0.0 | 0.0 | 0.00 | 0.00 | 0.00 | 75 | 1016.5 |
| 20260905134502 | 80 | 0 | 0.0 | 0.0 | 0.00 | 0.00 | 0.00 | 77 | 1016.3 |
| 20260905133602 | 80 | 0 | 0.0 | 0.0 | 0.00 | 0.00 | 0.00 | 82 | 1016.6 |
| 20260905132702 | 79 | 0 | 0.0 | 0.0 | 0.00 | 0.00 | 0.00 | 81 | 1016.5 |
| 20260905131802 | 78 | 0 | 0.0 | 0.0 | 0.00 | 0.00 | 0.00 | 84 | 1016.6 |
| 20260905130902 | 77 | 0 | 0.0 | 0.0 | 0.00 | 0.00 | 0.00 | 85 | 1016.8 |
| 20260905130002 | 76 | 0 | 0.0 | 0.0 | 0.00 | 0.00 | 0.00 | 89 | 1016.8 |
| 20260905125402 | 76 | 0 | 0.0 | 0.0 | 0.00 | 0.00 | 0.00 | 91 | 1016.9 |
| 20260905124502 | 75 | 0 | 0.0 | 0.0 | 0.00 | 0.00 | 0.00 | 92 | 1016.6 |
| 20260905123602 | 74 | 0 | 0.0 | 0.0 | 0.00 | 0.00 | 0.00 | 93 | 1016.6 |
| 20260905122702 | 74 | 0 | 0.0 | 0.0 | 0.00 | 0.00 | 0.00 | 94 | 1016.7 |